createdAt,value
2022-10-12T00:00:31.056Z,8.52
2022-10-12T00:02:57.810Z,10.05
2022-10-12T00:05:24.597Z,7.13
2022-10-12T00:07:51.321Z,9.00
2022-10-12T00:10:18.730Z,9.63
2022-10-12T00:12:45.554Z,7.88
2022-10-12T00:15:12.406Z,7.43
2022-10-12T00:17:39.598Z,10.20
2022-10-12T00:20:07.237Z,9.25
2022-10-12T00:22:34.214Z,8.73
2022-10-12T00:25:00.915Z,11.95
2022-10-12T00:27:27.741Z,12.68
2022-10-12T00:29:54.491Z,8.52
2022-10-12T00:32:21.355Z,9.55
2022-10-12T00:34:48.136Z,9.35
2022-10-12T00:37:14.924Z,8.23
2022-10-12T00:39:41.763Z,10.15
2022-10-12T00:42:12.088Z,9.75
2022-10-12T00:44:47.318Z,8.18
2022-10-12T00:47:37.431Z,10.80
2022-10-12T00:50:09.724Z,9.38
2022-10-12T00:53:08.924Z,10.07
2022-10-12T00:55:40.585Z,8.27
2022-10-12T00:58:08.957Z,9.80
2022-10-12T01:00:38.281Z,7.57
2022-10-12T01:03:08.047Z,12.43
2022-10-12T01:05:34.963Z,7.75
2022-10-12T01:08:02.872Z,11.50
2022-10-12T01:10:29.588Z,8.90
2022-10-12T01:12:56.547Z,7.90
2022-10-12T01:15:29.580Z,8.23
2022-10-12T01:18:02.354Z,9.98
2022-10-12T01:23:28.924Z,6.75
2022-10-12T01:26:21.693Z,9.23
2022-10-12T01:28:51.331Z,7.57
2022-10-12T01:31:57.714Z,9.75
2022-10-12T01:34:44.757Z,9.05
2022-10-12T01:37:19.627Z,9.35
2022-10-12T01:39:54.725Z,9.45
2022-10-12T01:42:27.427Z,8.70
2022-10-12T01:45:08.742Z,8.23
2022-10-12T01:47:37.421Z,9.02
2022-10-12T01:50:08.186Z,10.15
2022-10-12T01:52:50.999Z,10.23
2022-10-12T01:55:41.732Z,8.43
2022-10-12T01:58:43.002Z,9.65
2022-10-12T02:01:30.381Z,8.25
2022-10-12T02:04:22.008Z,9.23
2022-10-12T02:06:54.005Z,8.73
2022-10-12T02:09:26.678Z,9.30
2022-10-12T02:11:58.518Z,9.85
2022-10-12T02:14:30.732Z,10.40
2022-10-12T02:17:01.920Z,12.75
2022-10-12T02:19:32.929Z,10.57
2022-10-12T02:22:03.101Z,11.05
2022-10-12T02:24:34.276Z,9.05
2022-10-12T02:27:01.936Z,10.38
2022-10-12T02:29:36.650Z,8.35
2022-10-12T02:32:20.551Z,8.70
2022-10-12T02:34:59.410Z,12.70
2022-10-12T02:37:46.723Z,9.63
2022-10-12T02:40:18.051Z,9.15
2022-10-12T02:43:09.393Z,9.73
2022-10-12T02:45:41.378Z,10.07
2022-10-12T02:48:11.953Z,10.77
2022-10-12T02:50:38.910Z,10.40
2022-10-12T02:53:06.147Z,10.35
2022-10-12T02:55:38.644Z,9.50
2022-10-12T02:58:05.467Z,9.73
2022-10-12T03:00:34.499Z,9.20
2022-10-12T03:03:01.224Z,12.45
2022-10-12T03:05:28.005Z,9.23
2022-10-12T03:07:54.736Z,12.30
2022-10-12T03:10:21.503Z,7.80
2022-10-12T03:12:50.326Z,11.88
2022-10-12T03:15:17.423Z,12.07
2022-10-12T03:17:44.214Z,11.52
2022-10-12T03:20:11.573Z,10.10
2022-10-12T03:22:38.324Z,13.23
2022-10-12T03:25:05.483Z,10.48
2022-10-12T03:27:32.248Z,10.65
2022-10-12T03:29:59.032Z,11.95
2022-10-12T03:32:26.269Z,14.05
2022-10-12T03:34:53.072Z,12.45
2022-10-12T03:37:19.824Z,11.80
2022-10-12T03:39:46.587Z,11.45
2022-10-12T03:42:14.101Z,12.70
2022-10-12T03:44:40.931Z,10.32
2022-10-12T03:47:07.685Z,11.20
2022-10-12T03:49:34.442Z,14.82
2022-10-12T03:52:01.205Z,12.60
2022-10-12T03:54:27.977Z,9.43
2022-10-12T03:56:54.725Z,15.07
2022-10-12T03:59:21.484Z,14.18
2022-10-12T04:01:48.443Z,11.07
2022-10-12T04:04:15.220Z,17.17
2022-10-12T04:06:42.094Z,9.98
2022-10-12T04:09:09.023Z,11.02
2022-10-12T04:11:35.825Z,20.02
2022-10-12T04:14:02.584Z,16.08
2022-10-12T04:16:31.123Z,13.40
2022-10-12T04:18:58.123Z,15.52
2022-10-12T04:21:26.107Z,12.52
2022-10-12T04:23:52.975Z,15.68
2022-10-12T04:26:19.758Z,12.27
2022-10-12T04:28:46.531Z,11.48
2022-10-12T04:31:13.384Z,13.57
2022-10-12T04:33:40.116Z,15.02
2022-10-12T04:36:07.741Z,12.80
2022-10-12T04:38:34.979Z,12.45
2022-10-12T04:41:01.782Z,14.98
2022-10-12T04:43:28.513Z,13.88
2022-10-12T04:45:59.907Z,14.93
2022-10-12T04:48:27.348Z,17.92
2022-10-12T04:50:54.196Z,20.13
2022-10-12T04:53:21.184Z,16.17
2022-10-12T04:55:47.981Z,16.77
2022-10-12T04:58:15.005Z,16.45
2022-10-12T05:00:41.843Z,18.15
2022-10-12T05:03:08.576Z,17.33
2022-10-12T05:05:36.258Z,13.30
2022-10-12T05:08:04.857Z,15.77
2022-10-12T05:10:31.835Z,15.57
2022-10-12T05:12:58.949Z,11.50
2022-10-12T05:15:26.378Z,15.73
2022-10-12T05:17:53.227Z,15.95
2022-10-12T05:20:20.094Z,18.40
2022-10-12T05:22:46.907Z,16.80
2022-10-12T05:25:13.857Z,14.07
2022-10-12T05:27:40.898Z,18.33
2022-10-12T05:30:09.169Z,14.10
2022-10-12T05:32:36.018Z,17.35
2022-10-12T05:35:03.313Z,16.35
2022-10-12T05:37:30.177Z,20.42
2022-10-12T05:39:57.161Z,17.27
2022-10-12T05:42:23.870Z,18.40
2022-10-12T05:44:50.586Z,17.83
2022-10-12T05:47:17.387Z,13.82
2022-10-12T05:49:44.274Z,21.27
2022-10-12T05:52:11.083Z,12.27
2022-10-12T05:54:37.877Z,15.73
2022-10-12T05:57:04.788Z,16.20
2022-10-12T05:59:31.570Z,21.17
2022-10-12T06:01:58.414Z,20.75
2022-10-12T06:04:25.230Z,18.25
2022-10-12T06:06:52.042Z,18.20
2022-10-12T06:09:19.204Z,20.35
2022-10-12T06:11:45.956Z,15.13
2022-10-12T06:14:12.801Z,16.80
2022-10-12T06:16:39.690Z,12.38
2022-10-12T06:19:06.606Z,11.43
2022-10-12T06:21:34.566Z,9.98
2022-10-12T06:24:01.766Z,11.00
2022-10-12T06:26:28.557Z,8.95
2022-10-12T06:28:55.566Z,11.15
2022-10-12T06:31:23.199Z,13.35
2022-10-12T06:33:51.095Z,11.63
2022-10-12T06:36:18.227Z,14.10
2022-10-12T06:38:45.121Z,13.60
2022-10-12T06:41:12.140Z,13.77
2022-10-12T06:43:38.937Z,12.07
2022-10-12T06:46:05.879Z,9.32
2022-10-12T06:48:32.638Z,12.65
2022-10-12T06:50:59.696Z,11.48
2022-10-12T06:53:28.893Z,11.27
2022-10-12T06:55:55.843Z,11.13
2022-10-12T06:58:22.645Z,8.98
2022-10-12T07:00:49.525Z,12.13
2022-10-12T07:03:17.771Z,8.52
2022-10-12T07:05:44.543Z,9.05
2022-10-12T07:08:11.349Z,13.05
2022-10-12T07:10:38.120Z,8.60
2022-10-12T07:13:05.145Z,7.75
2022-10-12T07:15:31.917Z,9.85
2022-10-12T07:17:58.757Z,7.15
2022-10-12T07:20:25.563Z,9.30
2022-10-12T07:22:53.394Z,7.63
2022-10-12T07:25:22.256Z,7.63
2022-10-12T07:27:49.742Z,6.47
2022-10-12T07:30:16.741Z,6.18
2022-10-12T07:32:44.676Z,7.35
2022-10-12T07:35:11.495Z,7.35
2022-10-12T07:37:38.717Z,5.78
2022-10-12T07:40:06.253Z,7.20
2022-10-12T07:42:33.186Z,5.72
2022-10-12T07:44:59.870Z,7.00
2022-10-12T07:47:26.978Z,7.05
2022-10-12T07:49:53.727Z,6.30
2022-10-12T07:52:20.582Z,5.82
2022-10-12T07:54:47.409Z,5.30
2022-10-12T07:57:14.224Z,5.22
2022-10-12T07:59:40.986Z,5.50
2022-10-12T08:02:07.838Z,6.63
2022-10-12T08:04:34.626Z,5.80
2022-10-12T08:07:01.384Z,7.13
2022-10-12T08:09:28.364Z,5.45
2022-10-12T08:11:56.434Z,5.20
2022-10-12T08:14:23.487Z,7.72
2022-10-12T08:16:50.253Z,4.47
2022-10-12T08:19:19.164Z,4.50
2022-10-12T08:21:46.244Z,5.72
2022-10-12T08:24:14.413Z,5.07
2022-10-12T08:26:41.220Z,5.32
2022-10-12T08:29:08.597Z,2.92
2022-10-12T08:31:36.105Z,4.18
2022-10-12T08:34:03.967Z,5.78
2022-10-12T08:36:30.946Z,4.70
2022-10-12T08:38:58.073Z,4.00
2022-10-12T08:41:55.231Z,5.55
2022-10-12T08:44:43.331Z,4.43
2022-10-12T08:47:18.261Z,4.50
2022-10-12T08:49:49.953Z,3.78
2022-10-12T08:52:48.836Z,5.65
2022-10-12T08:55:23.618Z,3.83
2022-10-12T08:57:50.481Z,6.05
2022-10-12T09:00:18.108Z,3.30
2022-10-12T09:03:10.305Z,3.08
2022-10-12T09:06:38.511Z,3.33
2022-10-12T09:09:14.303Z,3.30
2022-10-12T09:12:08.583Z,4.60
2022-10-12T09:14:39.388Z,2.88
2022-10-12T09:17:23.872Z,4.20
2022-10-12T09:20:01.366Z,2.85
2022-10-12T09:22:30.445Z,3.85
2022-10-12T09:24:59.229Z,6.82
2022-10-12T09:27:30.883Z,2.83
2022-10-12T09:30:03.448Z,4.00
2022-10-12T09:32:48.774Z,3.33
2022-10-12T09:35:16.592Z,2.88
2022-10-12T09:37:49.510Z,1.83
2022-10-12T09:40:27.628Z,3.28
2022-10-12T09:42:56.011Z,3.92
2022-10-12T09:45:23.451Z,3.88
2022-10-12T09:48:16.865Z,4.28
2022-10-12T09:50:49.073Z,2.60
2022-10-12T09:53:41.426Z,2.38
2022-10-12T09:58:49.843Z,2.50
2022-10-12T10:01:22.020Z,2.53
2022-10-12T10:04:08.830Z,2.53
2022-10-12T10:06:38.085Z,5.47
2022-10-12T10:09:06.201Z,3.53
2022-10-12T10:11:33.326Z,3.92
2022-10-12T10:14:01.810Z,2.38
2022-10-12T10:16:30.669Z,3.08
2022-10-12T10:19:00.792Z,2.75
2022-10-12T10:21:34.141Z,4.75
2022-10-12T10:24:03.749Z,3.50
2022-10-12T10:26:52.046Z,2.45
2022-10-12T10:29:21.776Z,5.95
2022-10-12T10:31:48.839Z,3.60
2022-10-12T10:34:18.577Z,4.07
2022-10-12T10:36:47.138Z,4.22
2022-10-12T10:39:47.364Z,3.80
2022-10-12T10:42:24.489Z,3.40
2022-10-12T10:44:56.525Z,5.65
2022-10-12T10:47:23.453Z,3.33
2022-10-12T10:49:55.918Z,3.22
2022-10-12T10:52:32.260Z,3.38
2022-10-12T10:55:48.481Z,5.63
2022-10-12T10:58:29.283Z,4.82
2022-10-12T11:01:02.264Z,4.95
2022-10-12T11:03:51.497Z,2.97
2022-10-12T11:06:42.222Z,5.65
2022-10-12T11:09:30.922Z,4.20
2022-10-12T11:12:06.851Z,3.45
2022-10-12T11:14:52.215Z,4.47
2022-10-12T11:17:27.015Z,2.38
2022-10-12T11:20:25.462Z,2.35
2022-10-12T11:23:01.804Z,2.70
2022-10-12T11:26:05.820Z,4.30
2022-10-12T11:28:33.688Z,2.53
2022-10-12T11:31:02.509Z,2.40
2022-10-12T11:33:54.385Z,3.85
2022-10-12T11:36:24.887Z,3.53
2022-10-12T11:38:57.012Z,3.75
2022-10-12T11:42:09.789Z,2.30
2022-10-12T11:44:43.712Z,3.42
2022-10-12T11:47:22.736Z,1.30
2022-10-12T11:50:01.804Z,2.63
2022-10-12T11:52:44.631Z,4.90
2022-10-12T11:58:01.660Z,9.52
2022-10-12T12:00:54.282Z,5.30
2022-10-12T12:03:31.169Z,3.15
2022-10-12T12:06:30.040Z,6.05
2022-10-12T12:08:56.898Z,3.50
2022-10-12T12:11:29.507Z,5.53
2022-10-12T12:16:44.796Z,7.90
2022-10-12T12:19:34.189Z,5.80
2022-10-12T12:22:13.240Z,4.93
2022-10-12T12:24:41.630Z,1.92
2022-10-12T12:27:33.716Z,7.30
2022-10-12T12:30:02.792Z,3.35
2022-10-12T12:32:44.743Z,2.95
2022-10-12T12:35:25.860Z,3.90
2022-10-12T12:38:14.238Z,6.03
2022-10-12T12:40:53.960Z,4.78
2022-10-12T12:43:29.624Z,4.75
2022-10-12T12:46:09.013Z,3.58
2022-10-12T12:48:55.992Z,3.58
2022-10-12T12:51:37.781Z,4.85
2022-10-12T12:54:21.792Z,3.40
2022-10-12T12:57:07.481Z,2.65
2022-10-12T12:59:49.175Z,4.18
2022-10-12T13:02:50.633Z,3.05
2022-10-12T13:05:34.602Z,4.18
2022-10-12T13:08:07.658Z,3.03
2022-10-12T13:11:04.427Z,5.97
2022-10-12T13:13:49.861Z,1.88
2022-10-12T13:19:35.599Z,3.78
2022-10-12T13:22:06.638Z,1.42
2022-10-12T13:24:46.826Z,3.03
2022-10-12T13:27:18.008Z,2.33
2022-10-12T13:30:04.474Z,2.47
2022-10-12T13:32:40.509Z,2.38
2022-10-12T13:35:29.380Z,4.30
2022-10-12T13:38:19.887Z,3.83
2022-10-12T13:40:53.701Z,1.88
2022-10-12T13:43:42.193Z,1.83
2022-10-12T13:46:34.045Z,4.90
2022-10-12T13:49:02.063Z,3.65
2022-10-12T13:51:31.011Z,2.22
2022-10-12T13:53:58.042Z,4.68
2022-10-12T13:56:30.268Z,4.45
2022-10-12T13:59:00.513Z,4.70
2022-10-12T14:01:27.641Z,4.20
2022-10-12T14:04:05.669Z,5.68
2022-10-12T14:06:35.502Z,3.83
2022-10-12T14:09:17.609Z,3.72
2022-10-12T14:11:45.469Z,2.87
2022-10-12T14:14:20.662Z,3.05
2022-10-12T14:16:49.973Z,3.63
2022-10-12T14:19:31.248Z,5.15
2022-10-12T14:22:00.436Z,4.95
2022-10-12T14:24:27.340Z,4.88
2022-10-12T14:27:05.981Z,2.67
2022-10-12T14:29:40.542Z,3.10
2022-10-12T14:32:10.158Z,3.33
2022-10-12T14:34:41.860Z,2.40
2022-10-12T14:37:08.684Z,4.07
2022-10-12T14:39:36.661Z,2.58
2022-10-12T14:42:19.222Z,2.50
2022-10-12T14:44:46.070Z,3.72
2022-10-12T14:47:39.814Z,2.05
2022-10-12T14:50:09.774Z,7.00
2022-10-12T14:52:45.220Z,2.03
2022-10-12T14:55:18.090Z,4.22
2022-10-12T14:57:45.547Z,2.05
2022-10-12T15:00:28.145Z,2.75
2022-10-12T15:02:55.071Z,5.28
2022-10-12T15:05:24.477Z,3.33
2022-10-12T15:07:52.076Z,3.53
2022-10-12T15:10:22.627Z,5.47
2022-10-12T15:12:50.267Z,2.45
2022-10-12T15:15:29.001Z,4.72
2022-10-12T15:17:56.848Z,3.65
2022-10-12T15:20:23.859Z,3.65
2022-10-12T15:22:50.730Z,3.15
2022-10-12T15:25:37.709Z,5.80
2022-10-12T15:28:04.726Z,2.60
2022-10-12T15:30:32.418Z,3.45
2022-10-12T15:32:59.437Z,3.63
2022-10-12T15:35:29.197Z,3.95
2022-10-12T15:37:56.446Z,4.63
2022-10-12T15:40:24.175Z,7.13
2022-10-12T15:42:51.025Z,7.95
2022-10-12T15:45:22.483Z,4.65
2022-10-12T15:47:50.717Z,8.30
2022-10-12T15:50:20.359Z,11.40
2022-10-12T15:52:47.452Z,6.60
2022-10-12T15:55:29.477Z,10.30
2022-10-12T15:57:57.056Z,8.00
2022-10-12T16:00:27.258Z,10.52
2022-10-12T16:02:55.540Z,8.48
2022-10-12T16:05:25.576Z,8.52
2022-10-12T16:07:52.742Z,7.35
2022-10-12T16:10:23.476Z,7.63
2022-10-12T16:12:52.526Z,8.18
2022-10-12T16:15:31.599Z,8.88
2022-10-12T16:18:02.465Z,3.47
2022-10-12T16:20:31.348Z,6.03
2022-10-12T16:22:59.671Z,7.15
2022-10-12T16:25:27.661Z,6.07
2022-10-12T16:27:56.427Z,5.00
2022-10-12T16:30:24.356Z,6.03
2022-10-12T16:32:51.613Z,5.47
2022-10-12T16:35:18.599Z,3.65
2022-10-12T16:37:45.374Z,11.30
2022-10-12T16:40:12.616Z,12.57
2022-10-12T16:42:39.871Z,13.13
2022-10-12T16:45:07.367Z,19.75
2022-10-12T16:47:37.629Z,23.42
2022-10-12T16:52:33.956Z,10.00
2022-10-12T16:55:00.890Z,8.98
2022-10-12T16:57:27.773Z,7.70
2022-10-12T16:59:54.766Z,12.07
2022-10-12T17:02:21.642Z,7.38
2022-10-12T17:04:48.482Z,6.88
2022-10-12T17:07:15.728Z,4.55
2022-10-12T17:09:42.993Z,5.88
2022-10-12T17:12:09.843Z,8.07
2022-10-12T17:14:36.702Z,5.93
2022-10-12T17:17:04.206Z,8.20
2022-10-12T17:19:40.073Z,9.00
2022-10-12T17:22:09.793Z,15.68
2022-10-12T17:24:38.763Z,8.32
2022-10-12T17:27:08.082Z,14.30
2022-10-12T17:29:40.237Z,11.02
2022-10-12T17:32:08.432Z,13.95
2022-10-12T17:34:43.499Z,13.75
2022-10-12T17:37:13.812Z,8.98
2022-10-12T17:39:44.078Z,9.98
2022-10-12T17:42:11.591Z,11.30
2022-10-12T17:44:38.399Z,11.85
2022-10-12T17:47:05.182Z,12.85
2022-10-12T17:49:32.274Z,17.90
2022-10-12T17:51:59.097Z,18.00
2022-10-12T17:54:26.813Z,16.33
2022-10-12T17:56:56.907Z,11.40
2022-10-12T17:59:24.251Z,12.27
2022-10-12T18:01:52.069Z,13.38
2022-10-12T18:04:20.055Z,16.33
2022-10-12T18:06:46.927Z,14.65
2022-10-12T18:09:13.804Z,17.08
2022-10-12T18:11:40.684Z,10.73
2022-10-12T18:14:09.586Z,13.10
2022-10-12T18:16:36.846Z,16.08
2022-10-12T18:19:05.291Z,15.60
2022-10-12T18:21:33.260Z,21.70
2022-10-12T18:24:12.266Z,25.85
2022-10-12T18:26:43.351Z,16.48
2022-10-12T18:29:10.230Z,15.50
2022-10-12T18:31:37.139Z,15.02
2022-10-12T18:34:04.889Z,17.20
2022-10-12T18:36:31.727Z,14.68
2022-10-12T18:39:01.368Z,16.92
2022-10-12T18:41:28.570Z,13.80
2022-10-12T18:43:59.529Z,12.60
2022-10-12T18:46:28.441Z,12.70
2022-10-12T18:48:56.045Z,17.08
2022-10-12T18:51:29.482Z,14.90
2022-10-12T18:53:57.193Z,15.93
2022-10-12T18:56:26.047Z,19.85
2022-10-12T18:58:53.190Z,20.25
2022-10-12T19:01:22.767Z,16.20
2022-10-12T19:03:49.630Z,15.02
2022-10-12T19:06:18.949Z,18.60
2022-10-12T19:08:47.983Z,27.63
2022-10-12T19:11:17.550Z,32.70
2022-10-12T19:13:50.731Z,32.08
2022-10-12T19:16:18.035Z,31.15
2022-10-12T19:18:44.890Z,25.40
2022-10-12T19:21:14.620Z,23.85
2022-10-12T19:23:42.283Z,24.13
2022-10-12T19:26:15.221Z,14.27
2022-10-12T19:28:42.103Z,14.48
2022-10-12T19:31:14.290Z,17.23
2022-10-12T19:33:42.391Z,16.60
2022-10-12T19:36:10.829Z,9.95
2022-10-12T19:38:38.466Z,14.15
2022-10-12T19:41:06.491Z,13.32
2022-10-12T19:43:36.276Z,8.50
2022-10-12T19:46:07.861Z,12.75
2022-10-12T19:48:35.839Z,9.77
2022-10-12T19:51:10.094Z,8.93
2022-10-12T19:53:37.685Z,11.82
2022-10-12T19:56:07.700Z,7.88
2022-10-12T19:58:34.986Z,9.40
2022-10-12T20:01:12.939Z,6.57
2022-10-12T20:03:44.093Z,6.75
2022-10-12T20:06:13.682Z,7.88
2022-10-12T20:08:42.084Z,5.28
2022-10-12T20:11:13.089Z,10.57
2022-10-12T20:13:42.505Z,10.95
2022-10-12T20:16:09.335Z,8.68
2022-10-12T20:18:36.646Z,9.02
2022-10-12T20:21:08.616Z,4.43
2022-10-12T20:23:36.421Z,6.32
2022-10-12T20:26:09.542Z,6.22
2022-10-12T20:28:37.921Z,7.72
2022-10-12T20:31:05.882Z,7.32
2022-10-12T20:33:34.563Z,6.57
2022-10-12T20:36:01.418Z,7.50
2022-10-12T20:38:28.562Z,6.53
2022-10-12T20:41:07.145Z,10.68
2022-10-12T20:43:34.396Z,5.03
2022-10-12T20:46:05.336Z,9.35
2022-10-12T20:48:32.823Z,9.77
2022-10-12T20:50:59.749Z,7.88
2022-10-12T20:53:26.519Z,8.35
2022-10-12T20:55:54.825Z,7.13
2022-10-12T20:58:26.947Z,10.35
2022-10-12T21:01:09.549Z,8.60
2022-10-12T21:03:37.005Z,6.57
2022-10-12T21:06:12.990Z,9.75
2022-10-12T21:08:40.077Z,10.20
2022-10-12T21:11:06.928Z,11.27
2022-10-12T21:13:39.192Z,7.93
2022-10-12T21:16:06.315Z,9.70
2022-10-12T21:18:37.765Z,8.30
2022-10-12T21:21:16.717Z,4.85
2022-10-12T21:23:45.309Z,5.85
2022-10-12T21:26:14.551Z,5.30
2022-10-12T21:28:41.428Z,11.10
2022-10-12T21:31:08.756Z,7.75
2022-10-12T21:33:39.095Z,8.70
2022-10-12T21:36:27.084Z,8.38
2022-10-12T21:38:54.051Z,7.63
2022-10-12T21:41:23.996Z,7.70
2022-10-12T21:43:51.899Z,12.73
2022-10-12T21:46:27.709Z,12.45
2022-10-12T21:48:55.036Z,11.30
2022-10-12T21:51:23.497Z,9.85
2022-10-12T21:53:50.741Z,8.63
2022-10-12T21:56:22.895Z,8.15
2022-10-12T21:58:50.599Z,11.27
2022-10-12T22:01:22.658Z,10.23
2022-10-12T22:03:59.652Z,11.05
2022-10-12T22:06:27.906Z,8.82
2022-10-12T22:09:16.938Z,5.97
2022-10-12T22:11:44.400Z,8.90
2022-10-12T22:14:17.465Z,9.73
2022-10-12T22:16:44.957Z,11.57
2022-10-12T22:19:15.404Z,15.18
2022-10-12T22:21:42.348Z,9.68
2022-10-12T22:24:09.467Z,6.80
2022-10-12T22:26:36.782Z,8.98
2022-10-12T22:29:07.482Z,9.73
2022-10-12T22:31:35.446Z,10.63
2022-10-12T22:34:02.445Z,10.00
2022-10-12T22:36:33.211Z,6.65
2022-10-12T22:39:02.986Z,10.85
2022-10-12T22:41:29.865Z,8.43
2022-10-12T22:43:57.070Z,14.80
2022-10-12T22:46:25.519Z,8.57
2022-10-12T22:48:53.652Z,12.85
2022-10-12T22:51:27.155Z,7.15
2022-10-12T22:53:54.035Z,7.05
2022-10-12T22:56:20.943Z,7.32
2022-10-12T22:58:49.046Z,8.05
2022-10-12T23:01:17.698Z,7.97
2022-10-12T23:03:45.574Z,12.75
2022-10-12T23:06:15.305Z,8.02
2022-10-12T23:08:42.219Z,10.18
2022-10-12T23:11:12.210Z,11.57
2022-10-12T23:13:41.117Z,12.57
2022-10-12T23:16:13.905Z,10.68
2022-10-12T23:21:11.166Z,9.25
2022-10-12T23:23:39.993Z,11.27
2022-10-12T23:26:10.065Z,7.65
2022-10-12T23:28:37.102Z,11.10
2022-10-12T23:31:08.470Z,5.72
2022-10-12T23:33:35.511Z,11.27
2022-10-12T23:36:11.834Z,8.25
2022-10-12T23:38:40.749Z,8.63
2022-10-12T23:41:08.563Z,8.13
2022-10-12T23:43:36.169Z,6.60
2022-10-12T23:46:04.826Z,6.38
2022-10-12T23:48:32.174Z,6.90
2022-10-12T23:51:00.144Z,9.98
2022-10-12T23:53:27.459Z,7.90
2022-10-12T23:55:54.294Z,9.88
2022-10-12T23:58:21.238Z,6.95
